sensor_id;sensor_type;location;lat;lon;timestamp;pressure;altitude;pressure_sealevel;temperature;humidity
12963;BME280;6546;49.882;8.666;2023-03-16T00:01:56;100567.81;;;3.10;62.65
12963;BME280;6546;49.882;8.666;2023-03-16T00:04:23;100573.13;;;3.07;63.47
12963;BME280;6546;49.882;8.666;2023-03-16T00:06:49;100576.44;;;2.97;64.27
12963;BME280;6546;49.882;8.666;2023-03-16T00:09:17;100575.69;;;2.95;64.75
12963;BME280;6546;49.882;8.666;2023-03-16T00:11:44;100573.75;;;2.98;64.67
12963;BME280;6546;49.882;8.666;2023-03-16T00:14:10;100577.22;;;2.97;64.50
12963;BME280;6546;49.882;8.666;2023-03-16T00:16:37;100577.34;;;2.96;65.07
12963;BME280;6546;49.882;8.666;2023-03-16T00:19:04;100562.81;;;2.96;63.64
12963;BME280;6546;49.882;8.666;2023-03-16T00:21:30;100572.09;;;2.97;62.08
12963;BME280;6546;49.882;8.666;2023-03-16T00:23:59;100558.50;;;2.84;62.22
12963;BME280;6546;49.882;8.666;2023-03-16T00:26:29;100556.13;;;2.81;62.30
12963;BME280;6546;49.882;8.666;2023-03-16T00:28:56;100551.81;;;2.69;62.38
12963;BME280;6546;49.882;8.666;2023-03-16T00:31:22;100555.19;;;2.57;62.95
12963;BME280;6546;49.882;8.666;2023-03-16T00:33:50;100552.41;;;2.47;63.61
12963;BME280;6546;49.882;8.666;2023-03-16T00:36:16;100552.84;;;2.54;63.09
12963;BME280;6546;49.882;8.666;2023-03-16T00:38:43;100547.09;;;2.50;62.89
12963;BME280;6546;49.882;8.666;2023-03-16T00:41:12;100545.84;;;2.43;63.45
12963;BME280;6546;49.882;8.666;2023-03-16T00:43:41;100541.34;;;2.34;63.67
12963;BME280;6546;49.882;8.666;2023-03-16T00:46:11;100539.25;;;2.27;64.16
12963;BME280;6546;49.882;8.666;2023-03-16T00:48:40;100543.84;;;2.22;64.36
12963;BME280;6546;49.882;8.666;2023-03-16T00:51:09;100539.47;;;2.24;64.43
12963;BME280;6546;49.882;8.666;2023-03-16T00:53:38;100540.69;;;2.18;65.48
12963;BME280;6546;49.882;8.666;2023-03-16T00:56:05;100537.00;;;2.22;65.47
12963;BME280;6546;49.882;8.666;2023-03-16T00:58:34;100530.69;;;2.28;64.79
12963;BME280;6546;49.882;8.666;2023-03-16T01:01:04;100534.69;;;2.32;64.84
12963;BME280;6546;49.882;8.666;2023-03-16T01:03:30;100529.44;;;2.21;64.57
12963;BME280;6546;49.882;8.666;2023-03-16T01:05:57;100533.47;;;2.10;64.97
12963;BME280;6546;49.882;8.666;2023-03-16T01:08:28;100536.22;;;2.07;65.62
12963;BME280;6546;49.882;8.666;2023-03-16T01:11:01;100536.78;;;2.13;65.52
12963;BME280;6546;49.882;8.666;2023-03-16T01:13:29;100529.19;;;2.11;65.34
12963;BME280;6546;49.882;8.666;2023-03-16T01:15:57;100525.13;;;2.08;64.91
12963;BME280;6546;49.882;8.666;2023-03-16T01:18:24;100530.31;;;2.07;65.13
12963;BME280;6546;49.882;8.666;2023-03-16T01:20:51;100529.13;;;2.13;65.16
12963;BME280;6546;49.882;8.666;2023-03-16T01:23:18;100536.81;;;1.98;65.51
12963;BME280;6546;49.882;8.666;2023-03-16T01:25:45;100530.59;;;2.02;65.56
12963;BME280;6546;49.882;8.666;2023-03-16T01:28:18;100529.72;;;2.03;65.83
12963;BME280;6546;49.882;8.666;2023-03-16T01:30:44;100530.25;;;1.94;66.27
12963;BME280;6546;49.882;8.666;2023-03-16T01:33:11;100533.56;;;1.96;66.32
12963;BME280;6546;49.882;8.666;2023-03-16T01:35:39;100529.75;;;1.89;66.73
12963;BME280;6546;49.882;8.666;2023-03-16T01:38:06;100529.63;;;1.91;66.92
12963;BME280;6546;49.882;8.666;2023-03-16T01:40:33;100521.69;;;1.95;66.92
12963;BME280;6546;49.882;8.666;2023-03-16T01:43:02;100516.25;;;1.87;67.19
12963;BME280;6546;49.882;8.666;2023-03-16T01:48:41;100501.88;;;1.72;68.06
12963;BME280;6546;49.882;8.666;2023-03-16T01:51:14;100503.09;;;1.67;68.32
12963;BME280;6546;49.882;8.666;2023-03-16T01:53:44;100506.09;;;1.59;68.62
12963;BME280;6546;49.882;8.666;2023-03-16T01:56:15;100484.88;;;1.58;68.46
12963;BME280;6546;49.882;8.666;2023-03-16T01:58:44;100501.75;;;1.61;68.59
12963;BME280;6546;49.882;8.666;2023-03-16T02:01:12;100497.72;;;1.71;68.13
12963;BME280;6546;49.882;8.666;2023-03-16T02:03:40;100505.91;;;1.62;68.62
12963;BME280;6546;49.882;8.666;2023-03-16T02:06:13;100493.16;;;1.62;68.62
12963;BME280;6546;49.882;8.666;2023-03-16T02:08:43;100502.84;;;1.57;69.05
12963;BME280;6546;49.882;8.666;2023-03-16T02:11:11;100496.09;;;1.56;69.49
12963;BME280;6546;49.882;8.666;2023-03-16T02:13:42;100483.69;;;1.64;69.14
12963;BME280;6546;49.882;8.666;2023-03-16T02:16:10;100479.31;;;1.52;69.90
12963;BME280;6546;49.882;8.666;2023-03-16T02:18:37;100480.41;;;1.62;69.24
12963;BME280;6546;49.882;8.666;2023-03-16T02:21:06;100484.59;;;1.63;69.33
12963;BME280;6546;49.882;8.666;2023-03-16T02:23:37;100489.69;;;1.63;69.07
12963;BME280;6546;49.882;8.666;2023-03-16T02:26:09;100490.72;;;1.61;69.57
12963;BME280;6546;49.882;8.666;2023-03-16T02:28:40;100492.25;;;1.63;69.26
12963;BME280;6546;49.882;8.666;2023-03-16T02:31:14;100494.63;;;1.52;69.81
12963;BME280;6546;49.882;8.666;2023-03-16T02:33:42;100492.19;;;1.50;70.10
12963;BME280;6546;49.882;8.666;2023-03-16T02:36:11;100484.63;;;1.49;70.24
12963;BME280;6546;49.882;8.666;2023-03-16T02:38:39;100478.78;;;1.47;70.75
12963;BME280;6546;49.882;8.666;2023-03-16T02:41:10;100478.09;;;1.45;70.73
12963;BME280;6546;49.882;8.666;2023-03-16T02:43:40;100472.59;;;1.51;70.94
12963;BME280;6546;49.882;8.666;2023-03-16T02:46:07;100469.84;;;1.54;71.25
12963;BME280;6546;49.882;8.666;2023-03-16T02:48:40;100464.56;;;1.57;71.22
12963;BME280;6546;49.882;8.666;2023-03-16T02:51:09;100461.63;;;1.63;70.94
12963;BME280;6546;49.882;8.666;2023-03-16T02:53:36;100468.50;;;1.75;70.57
12963;BME280;6546;49.882;8.666;2023-03-16T02:56:03;100453.53;;;1.83;69.33
12963;BME280;6546;49.882;8.666;2023-03-16T02:58:30;100451.91;;;1.82;69.19
12963;BME280;6546;49.882;8.666;2023-03-16T03:00:57;100454.66;;;1.79;69.23
12963;BME280;6546;49.882;8.666;2023-03-16T03:03:23;100459.03;;;1.77;69.39
12963;BME280;6546;49.882;8.666;2023-03-16T03:05:51;100451.19;;;1.80;69.16
12963;BME280;6546;49.882;8.666;2023-03-16T03:08:18;100439.19;;;1.68;69.37
12963;BME280;6546;49.882;8.666;2023-03-16T03:10:47;100448.28;;;1.72;69.64
12963;BME280;6546;49.882;8.666;2023-03-16T03:13:14;100442.66;;;1.67;69.89
12963;BME280;6546;49.882;8.666;2023-03-16T03:15:40;100444.66;;;1.62;70.21
12963;BME280;6546;49.882;8.666;2023-03-16T03:18:07;100441.22;;;1.63;70.28
12963;BME280;6546;49.882;8.666;2023-03-16T03:20:33;100440.63;;;1.72;70.21
12963;BME280;6546;49.882;8.666;2023-03-16T03:23:01;100435.97;;;1.79;70.13
12963;BME280;6546;49.882;8.666;2023-03-16T03:25:28;100436.69;;;1.81;70.07
12963;BME280;6546;49.882;8.666;2023-03-16T03:27:59;100422.28;;;1.80;70.15
12963;BME280;6546;49.882;8.666;2023-03-16T03:30:26;100429.28;;;1.90;69.54
12963;BME280;6546;49.882;8.666;2023-03-16T03:32:53;100437.84;;;1.89;69.64
12963;BME280;6546;49.882;8.666;2023-03-16T03:35:21;100441.41;;;1.87;69.77
12963;BME280;6546;49.882;8.666;2023-03-16T03:37:47;100434.56;;;1.87;69.83
12963;BME280;6546;49.882;8.666;2023-03-16T03:40:17;100443.13;;;1.86;70.17
12963;BME280;6546;49.882;8.666;2023-03-16T03:42:43;100441.69;;;1.82;70.22
12963;BME280;6546;49.882;8.666;2023-03-16T03:45:11;100439.63;;;1.75;70.47
12963;BME280;6546;49.882;8.666;2023-03-16T03:47:38;100439.81;;;1.72;70.75
12963;BME280;6546;49.882;8.666;2023-03-16T03:50:07;100444.28;;;1.68;71.11
12963;BME280;6546;49.882;8.666;2023-03-16T03:52:33;100432.88;;;1.74;70.69
12963;BME280;6546;49.882;8.666;2023-03-16T03:55:00;100428.50;;;1.76;70.59
12963;BME280;6546;49.882;8.666;2023-03-16T03:57:28;100430.84;;;1.79;70.59
12963;BME280;6546;49.882;8.666;2023-03-16T03:59:54;100425.84;;;1.77;70.67
12963;BME280;6546;49.882;8.666;2023-03-16T04:02:21;100427.69;;;1.75;70.82
12963;BME280;6546;49.882;8.666;2023-03-16T04:04:48;100429.72;;;1.70;71.07
12963;BME280;6546;49.882;8.666;2023-03-16T04:07:14;100434.47;;;1.62;71.40
12963;BME280;6546;49.882;8.666;2023-03-16T04:09:41;100426.69;;;1.51;72.38
12963;BME280;6546;49.882;8.666;2023-03-16T04:12:09;100433.94;;;1.57;72.53
12963;BME280;6546;49.882;8.666;2023-03-16T04:14:37;100435.72;;;1.69;71.91
12963;BME280;6546;49.882;8.666;2023-03-16T04:17:04;100440.63;;;1.72;71.60
12963;BME280;6546;49.882;8.666;2023-03-16T04:19:31;100438.19;;;1.71;71.66
12963;BME280;6546;49.882;8.666;2023-03-16T04:21:58;100431.25;;;1.73;71.68
12963;BME280;6546;49.882;8.666;2023-03-16T04:24:24;100435.13;;;1.78;71.69
12963;BME280;6546;49.882;8.666;2023-03-16T04:26:51;100431.69;;;1.79;71.44
12963;BME280;6546;49.882;8.666;2023-03-16T04:29:19;100418.09;;;1.79;71.57
12963;BME280;6546;49.882;8.666;2023-03-16T04:31:47;100418.19;;;1.77;71.56
12963;BME280;6546;49.882;8.666;2023-03-16T04:34:15;100417.16;;;1.67;72.20
12963;BME280;6546;49.882;8.666;2023-03-16T04:36:41;100418.88;;;1.67;72.07
12963;BME280;6546;49.882;8.666;2023-03-16T04:39:08;100401.25;;;1.49;72.47
12963;BME280;6546;49.882;8.666;2023-03-16T04:41:35;100422.25;;;1.67;72.45
12963;BME280;6546;49.882;8.666;2023-03-16T04:44:01;100410.75;;;1.74;72.25
12963;BME280;6546;49.882;8.666;2023-03-16T04:46:28;100409.09;;;1.73;71.94
12963;BME280;6546;49.882;8.666;2023-03-16T04:48:56;100416.13;;;1.70;72.39
12963;BME280;6546;49.882;8.666;2023-03-16T04:51:23;100409.56;;;1.66;72.54
12963;BME280;6546;49.882;8.666;2023-03-16T04:53:50;100402.03;;;1.64;72.80
12963;BME280;6546;49.882;8.666;2023-03-16T04:56:17;100399.56;;;1.63;73.24
12963;BME280;6546;49.882;8.666;2023-03-16T04:58:44;100392.13;;;1.72;73.13
12963;BME280;6546;49.882;8.666;2023-03-16T05:01:10;100399.94;;;1.83;72.88
12963;BME280;6546;49.882;8.666;2023-03-16T05:03:37;100398.63;;;1.90;72.00
12963;BME280;6546;49.882;8.666;2023-03-16T05:06:05;100407.47;;;1.85;71.72
12963;BME280;6546;49.882;8.666;2023-03-16T05:08:32;100410.66;;;1.88;71.75
12963;BME280;6546;49.882;8.666;2023-03-16T05:10:59;100404.84;;;1.86;71.65
12963;BME280;6546;49.882;8.666;2023-03-16T05:13:26;100403.19;;;1.85;71.70
12963;BME280;6546;49.882;8.666;2023-03-16T05:15:52;100410.66;;;1.88;71.30
12963;BME280;6546;49.882;8.666;2023-03-16T05:18:19;100409.53;;;1.80;71.69
12963;BME280;6546;49.882;8.666;2023-03-16T05:20:48;100413.81;;;1.79;71.70
12963;BME280;6546;49.882;8.666;2023-03-16T05:23:16;100412.34;;;1.75;72.49
12963;BME280;6546;49.882;8.666;2023-03-16T05:25:43;100417.59;;;1.86;72.57
12963;BME280;6546;49.882;8.666;2023-03-16T05:28:11;100412.53;;;1.99;71.65
12963;BME280;6546;49.882;8.666;2023-03-16T05:30:37;100404.09;;;1.84;72.05
12963;BME280;6546;49.882;8.666;2023-03-16T05:33:05;100401.81;;;1.94;72.00
12963;BME280;6546;49.882;8.666;2023-03-16T05:35:32;100399.34;;;1.92;72.60
12963;BME280;6546;49.882;8.666;2023-03-16T05:37:58;100393.63;;;2.01;72.14
12963;BME280;6546;49.882;8.666;2023-03-16T05:40:26;100399.28;;;2.06;72.17
12963;BME280;6546;49.882;8.666;2023-03-16T05:42:54;100396.31;;;2.00;72.62
12963;BME280;6546;49.882;8.666;2023-03-16T05:45:22;100391.63;;;2.06;72.69
12963;BME280;6546;49.882;8.666;2023-03-16T05:47:49;100384.78;;;2.20;71.92
12963;BME280;6546;49.882;8.666;2023-03-16T05:50:17;100388.25;;;2.19;72.11
12963;BME280;6546;49.882;8.666;2023-03-16T05:52:44;100386.41;;;2.21;71.92
12963;BME280;6546;49.882;8.666;2023-03-16T05:55:12;100384.66;;;2.21;72.16
12963;BME280;6546;49.882;8.666;2023-03-16T05:57:41;100386.31;;;2.22;71.97
12963;BME280;6546;49.882;8.666;2023-03-16T06:00:11;100387.94;;;2.23;72.30
12963;BME280;6546;49.882;8.666;2023-03-16T06:02:39;100385.59;;;2.33;70.96
12963;BME280;6546;49.882;8.666;2023-03-16T06:05:06;100389.38;;;2.40;70.57
12963;BME280;6546;49.882;8.666;2023-03-16T06:07:34;100388.97;;;2.46;70.32
12963;BME280;6546;49.882;8.666;2023-03-16T06:10:01;100384.66;;;2.46;70.42
12963;BME280;6546;49.882;8.666;2023-03-16T06:12:29;100392.03;;;2.51;70.08
12963;BME280;6546;49.882;8.666;2023-03-16T06:14:57;100396.81;;;2.55;69.79
12963;BME280;6546;49.882;8.666;2023-03-16T06:17:23;100387.63;;;2.65;69.25
12963;BME280;6546;49.882;8.666;2023-03-16T06:19:50;100394.88;;;2.59;69.45
12963;BME280;6546;49.882;8.666;2023-03-16T06:22:16;100393.06;;;2.61;69.46
12963;BME280;6546;49.882;8.666;2023-03-16T06:24:43;100396.31;;;2.63;69.61
12963;BME280;6546;49.882;8.666;2023-03-16T06:27:10;100394.16;;;2.70;68.82
12963;BME280;6546;49.882;8.666;2023-03-16T06:29:37;100389.56;;;2.75;69.07
12963;BME280;6546;49.882;8.666;2023-03-16T06:32:05;100393.13;;;2.72;69.36
12963;BME280;6546;49.882;8.666;2023-03-16T06:34:32;100398.16;;;2.74;69.22
12963;BME280;6546;49.882;8.666;2023-03-16T06:36:59;100392.84;;;2.64;69.68
12963;BME280;6546;49.882;8.666;2023-03-16T06:39:25;100395.69;;;2.72;69.80
12963;BME280;6546;49.882;8.666;2023-03-16T06:41:52;100396.63;;;2.84;69.28
12963;BME280;6546;49.882;8.666;2023-03-16T06:44:19;100401.91;;;2.93;68.91
12963;BME280;6546;49.882;8.666;2023-03-16T06:46:45;100406.22;;;2.93;69.31
12963;BME280;6546;49.882;8.666;2023-03-16T06:49:13;100403.00;;;3.02;68.81
12963;BME280;6546;49.882;8.666;2023-03-16T06:51:40;100406.38;;;3.02;68.59
12963;BME280;6546;49.882;8.666;2023-03-16T06:54:07;100405.97;;;3.08;68.59
12963;BME280;6546;49.882;8.666;2023-03-16T06:56:33;100414.13;;;3.13;68.59
12963;BME280;6546;49.882;8.666;2023-03-16T06:59:00;100407.88;;;3.17;68.88
12963;BME280;6546;49.882;8.666;2023-03-16T07:01:27;100407.56;;;3.22;68.25
12963;BME280;6546;49.882;8.666;2023-03-16T07:03:54;100405.84;;;3.23;68.74
12963;BME280;6546;49.882;8.666;2023-03-16T07:06:21;100402.25;;;3.25;68.81
12963;BME280;6546;49.882;8.666;2023-03-16T07:08:48;100410.34;;;3.43;68.70
12963;BME280;6546;49.882;8.666;2023-03-16T07:11:15;100403.56;;;3.54;67.84
12963;BME280;6546;49.882;8.666;2023-03-16T07:13:42;100402.09;;;3.63;67.69
12963;BME280;6546;49.882;8.666;2023-03-16T07:16:09;100390.09;;;3.63;67.31
12963;BME280;6546;49.882;8.666;2023-03-16T07:18:35;100397.50;;;3.79;67.42
12963;BME280;6546;49.882;8.666;2023-03-16T07:21:04;100398.75;;;3.97;67.27
12963;BME280;6546;49.882;8.666;2023-03-16T07:23:32;100397.84;;;4.09;66.98
12963;BME280;6546;49.882;8.666;2023-03-16T07:25:59;100401.53;;;4.05;66.22
12963;BME280;6546;49.882;8.666;2023-03-16T07:28:26;100400.75;;;4.27;65.71
12963;BME280;6546;49.882;8.666;2023-03-16T07:30:54;100398.34;;;4.37;65.46
12963;BME280;6546;49.882;8.666;2023-03-16T07:33:20;100395.69;;;4.38;65.17
12963;BME280;6546;49.882;8.666;2023-03-16T07:35:47;100404.38;;;4.24;65.56
12963;BME280;6546;49.882;8.666;2023-03-16T07:38:13;100404.19;;;4.39;65.24
12963;BME280;6546;49.882;8.666;2023-03-16T07:40:41;100400.47;;;4.54;64.58
12963;BME280;6546;49.882;8.666;2023-03-16T07:43:08;100401.63;;;4.61;64.19
12963;BME280;6546;49.882;8.666;2023-03-16T07:45:34;100400.69;;;4.51;64.53
12963;BME280;6546;49.882;8.666;2023-03-16T07:48:01;100402.47;;;4.61;64.36
12963;BME280;6546;49.882;8.666;2023-03-16T07:50:28;100390.56;;;4.60;64.16
12963;BME280;6546;49.882;8.666;2023-03-16T07:52:54;100395.59;;;4.62;64.16
12963;BME280;6546;49.882;8.666;2023-03-16T07:55:21;100386.97;;;4.52;64.39
12963;BME280;6546;49.882;8.666;2023-03-16T07:57:49;100390.44;;;4.51;64.82
12963;BME280;6546;49.882;8.666;2023-03-16T08:00:16;100387.88;;;4.51;64.78
12963;BME280;6546;49.882;8.666;2023-03-16T08:02:48;100382.88;;;4.60;64.71
12963;BME280;6546;49.882;8.666;2023-03-16T08:05:15;100394.31;;;4.67;65.01
12963;BME280;6546;49.882;8.666;2023-03-16T08:07:41;100383.56;;;4.73;64.46
12963;BME280;6546;49.882;8.666;2023-03-16T08:10:09;100383.69;;;4.61;65.09
12963;BME280;6546;49.882;8.666;2023-03-16T08:12:36;100379.50;;;4.71;64.84
12963;BME280;6546;49.882;8.666;2023-03-16T08:15:05;100387.88;;;4.73;65.05
12963;BME280;6546;49.882;8.666;2023-03-16T08:17:32;100385.31;;;4.73;65.35
12963;BME280;6546;49.882;8.666;2023-03-16T08:19:58;100386.97;;;4.74;65.55
12963;BME280;6546;49.882;8.666;2023-03-16T08:22:25;100387.88;;;4.84;65.83
12963;BME280;6546;49.882;8.666;2023-03-16T08:24:52;100383.78;;;4.93;65.75
12963;BME280;6546;49.882;8.666;2023-03-16T08:27:18;100390.09;;;5.00;64.90
12963;BME280;6546;49.882;8.666;2023-03-16T08:29:50;100382.25;;;5.01;64.78
12963;BME280;6546;49.882;8.666;2023-03-16T08:32:18;100383.56;;;4.96;65.16
12963;BME280;6546;49.882;8.666;2023-03-16T08:34:45;100390.44;;;5.06;65.17
12963;BME280;6546;49.882;8.666;2023-03-16T08:37:12;100374.31;;;5.15;64.92
12963;BME280;6546;49.882;8.666;2023-03-16T08:39:40;100371.50;;;5.18;65.01
12963;BME280;6546;49.882;8.666;2023-03-16T08:42:08;100377.56;;;5.17;65.21
12963;BME280;6546;49.882;8.666;2023-03-16T08:44:35;100376.41;;;5.21;65.28
12963;BME280;6546;49.882;8.666;2023-03-16T08:47:02;100374.75;;;5.20;65.66
12963;BME280;6546;49.882;8.666;2023-03-16T08:49:30;100364.97;;;5.25;65.65
12963;BME280;6546;49.882;8.666;2023-03-16T08:51:57;100370.88;;;5.37;65.30
12963;BME280;6546;49.882;8.666;2023-03-16T08:54:25;100369.38;;;5.35;65.47
12963;BME280;6546;49.882;8.666;2023-03-16T08:56:51;100363.91;;;5.60;64.74
12963;BME280;6546;49.882;8.666;2023-03-16T08:59:18;100367.84;;;5.64;64.33
12963;BME280;6546;49.882;8.666;2023-03-16T09:01:44;100365.88;;;5.67;64.04
12963;BME280;6546;49.882;8.666;2023-03-16T09:04:12;100366.47;;;5.60;64.35
12963;BME280;6546;49.882;8.666;2023-03-16T09:06:40;100362.63;;;5.65;64.71
12963;BME280;6546;49.882;8.666;2023-03-16T09:09:07;100363.69;;;5.83;64.09
12963;BME280;6546;49.882;8.666;2023-03-16T09:11:34;100360.28;;;5.83;64.20
12963;BME280;6546;49.882;8.666;2023-03-16T09:14:01;100354.44;;;5.92;64.37
12963;BME280;6546;49.882;8.666;2023-03-16T09:16:28;100356.25;;;6.01;64.24
12963;BME280;6546;49.882;8.666;2023-03-16T09:18:55;100348.53;;;6.22;63.21
12963;BME280;6546;49.882;8.666;2023-03-16T09:21:22;100350.34;;;6.31;62.47
12963;BME280;6546;49.882;8.666;2023-03-16T09:23:51;100346.28;;;6.28;62.96
12963;BME280;6546;49.882;8.666;2023-03-16T09:26:18;100354.88;;;6.48;62.65
12963;BME280;6546;49.882;8.666;2023-03-16T09:28:45;100365.84;;;6.50;61.74
12963;BME280;6546;49.882;8.666;2023-03-16T09:31:15;100361.44;;;6.62;61.13
12963;BME280;6546;49.882;8.666;2023-03-16T09:33:42;100352.88;;;6.52;61.64
12963;BME280;6546;49.882;8.666;2023-03-16T09:36:09;100350.72;;;6.57;61.99
12963;BME280;6546;49.882;8.666;2023-03-16T09:38:36;100346.88;;;6.72;60.57
12963;BME280;6546;49.882;8.666;2023-03-16T09:41:08;100349.47;;;6.81;61.08
12963;BME280;6546;49.882;8.666;2023-03-16T09:43:54;100345.56;;;6.97;61.18
12963;BME280;6546;49.882;8.666;2023-03-16T09:46:27;100350.50;;;7.19;60.41
12963;BME280;6546;49.882;8.666;2023-03-16T09:48:56;100344.16;;;7.32;60.30
12963;BME280;6546;49.882;8.666;2023-03-16T09:51:34;100339.81;;;7.43;60.14
12963;BME280;6546;49.882;8.666;2023-03-16T09:54:07;100334.50;;;7.54;60.07
12963;BME280;6546;49.882;8.666;2023-03-16T09:56:41;100337.25;;;7.62;59.25
12963;BME280;6546;49.882;8.666;2023-03-16T09:59:10;100331.53;;;7.68;57.95
12963;BME280;6546;49.882;8.666;2023-03-16T10:01:45;100336.13;;;7.74;57.46
12963;BME280;6546;49.882;8.666;2023-03-16T10:04:23;100337.50;;;7.78;56.77
12963;BME280;6546;49.882;8.666;2023-03-16T10:07:03;100333.16;;;7.88;56.51
12963;BME280;6546;49.882;8.666;2023-03-16T10:09:35;100331.34;;;7.98;56.64
12963;BME280;6546;49.882;8.666;2023-03-16T10:12:06;100318.69;;;8.05;56.72
12963;BME280;6546;49.882;8.666;2023-03-16T10:14:40;100326.41;;;8.14;55.67
12963;BME280;6546;49.882;8.666;2023-03-16T10:17:14;100318.69;;;8.14;54.71
12963;BME280;6546;49.882;8.666;2023-03-16T10:19:45;100325.88;;;8.20;54.46
12963;BME280;6546;49.882;8.666;2023-03-16T10:22:18;100324.09;;;8.30;54.08
12963;BME280;6546;49.882;8.666;2023-03-16T10:24:56;100326.25;;;8.35;53.60
12963;BME280;6546;49.882;8.666;2023-03-16T10:27:28;100324.50;;;8.35;54.02
12963;BME280;6546;49.882;8.666;2023-03-16T10:29:55;100324.22;;;8.38;54.14
12963;BME280;6546;49.882;8.666;2023-03-16T10:32:22;100321.06;;;8.44;54.57
12963;BME280;6546;49.882;8.666;2023-03-16T10:34:57;100315.84;;;8.54;51.91
12963;BME280;6546;49.882;8.666;2023-03-16T10:37:25;100297.66;;;8.56;49.82
12963;BME280;6546;49.882;8.666;2023-03-16T10:39:55;100314.19;;;8.63;51.69
12963;BME280;6546;49.882;8.666;2023-03-16T10:42:23;100314.34;;;8.79;51.92
12963;BME280;6546;49.882;8.666;2023-03-16T10:44:57;100316.75;;;8.90;51.77
12963;BME280;6546;49.882;8.666;2023-03-16T10:47:28;100314.28;;;8.98;49.19
12963;BME280;6546;49.882;8.666;2023-03-16T10:49:54;100301.72;;;9.03;50.33
12963;BME280;6546;49.882;8.666;2023-03-16T10:52:26;100300.53;;;9.15;50.20
12963;BME280;6546;49.882;8.666;2023-03-16T10:54:59;100312.28;;;9.27;48.36
12963;BME280;6546;49.882;8.666;2023-03-16T10:57:31;100311.91;;;9.22;47.14
12963;BME280;6546;49.882;8.666;2023-03-16T11:00:04;100309.19;;;9.06;48.36
12963;BME280;6546;49.882;8.666;2023-03-16T11:02:40;100298.47;;;9.19;47.58
12963;BME280;6546;49.882;8.666;2023-03-16T11:05:14;100300.25;;;9.18;47.68
12963;BME280;6546;49.882;8.666;2023-03-16T11:07:47;100298.34;;;9.20;47.44
12963;BME280;6546;49.882;8.666;2023-03-16T11:10:25;100291.69;;;9.18;48.45
12963;BME280;6546;49.882;8.666;2023-03-16T11:12:53;100293.47;;;9.17;49.14
12963;BME280;6546;49.882;8.666;2023-03-16T11:15:21;100287.56;;;9.25;49.24
12963;BME280;6546;49.882;8.666;2023-03-16T11:17:50;100293.63;;;9.33;47.47
12963;BME280;6546;49.882;8.666;2023-03-16T11:20:22;100286.16;;;9.30;47.08
12963;BME280;6546;49.882;8.666;2023-03-16T11:22:53;100281.94;;;9.29;47.06
12963;BME280;6546;49.882;8.666;2023-03-16T11:25:26;100272.88;;;9.25;47.76
12963;BME280;6546;49.882;8.666;2023-03-16T11:27:58;100272.13;;;9.33;48.81
12963;BME280;6546;49.882;8.666;2023-03-16T11:30:34;100271.53;;;9.39;48.11
12963;BME280;6546;49.882;8.666;2023-03-16T11:33:07;100266.06;;;9.42;47.98
12963;BME280;6546;49.882;8.666;2023-03-16T11:35:38;100266.63;;;9.54;46.48
12963;BME280;6546;49.882;8.666;2023-03-16T11:38:12;100262.59;;;9.51;47.07
12963;BME280;6546;49.882;8.666;2023-03-16T11:40:48;100267.31;;;9.56;46.40
12963;BME280;6546;49.882;8.666;2023-03-16T11:43:37;100270.72;;;9.56;46.26
12963;BME280;6546;49.882;8.666;2023-03-16T11:46:10;100251.59;;;9.49;45.98
12963;BME280;6546;49.882;8.666;2023-03-16T11:48:44;100253.91;;;9.60;46.87
12963;BME280;6546;49.882;8.666;2023-03-16T11:51:24;100257.69;;;9.66;46.08
12963;BME280;6546;49.882;8.666;2023-03-16T11:54:01;100254.94;;;9.67;46.53
12963;BME280;6546;49.882;8.666;2023-03-16T11:56:32;100246.94;;;9.78;46.97
12963;BME280;6546;49.882;8.666;2023-03-16T11:59:32;100243.38;;;9.79;47.88
12963;BME280;6546;49.882;8.666;2023-03-16T12:05:18;100234.03;;;9.86;46.25
12963;BME280;6546;49.882;8.666;2023-03-16T12:07:53;100233.53;;;9.83;45.99
12963;BME280;6546;49.882;8.666;2023-03-16T12:10:28;100233.84;;;9.80;45.92
12963;BME280;6546;49.882;8.666;2023-03-16T12:13:18;100220.91;;;9.80;45.52
12963;BME280;6546;49.882;8.666;2023-03-16T12:15:56;100217.22;;;9.82;45.57
12963;BME280;6546;49.882;8.666;2023-03-16T12:18:35;100215.09;;;9.78;45.91
12963;BME280;6546;49.882;8.666;2023-03-16T12:21:09;100209.66;;;9.89;45.17
12963;BME280;6546;49.882;8.666;2023-03-16T12:23:42;100212.44;;;9.95;46.02
12963;BME280;6546;49.882;8.666;2023-03-16T12:26:09;100220.25;;;10.03;45.83
12963;BME280;6546;49.882;8.666;2023-03-16T12:28:37;100215.91;;;10.12;45.08
12963;BME280;6546;49.882;8.666;2023-03-16T12:31:08;100219.53;;;10.19;44.32
12963;BME280;6546;49.882;8.666;2023-03-16T12:33:49;100209.78;;;10.13;45.39
12963;BME280;6546;49.882;8.666;2023-03-16T12:36:34;100217.91;;;10.18;44.66
12963;BME280;6546;49.882;8.666;2023-03-16T12:39:05;100207.56;;;10.18;43.77
12963;BME280;6546;49.882;8.666;2023-03-16T12:41:38;100213.22;;;10.14;43.28
12963;BME280;6546;49.882;8.666;2023-03-16T12:44:14;100212.31;;;10.05;44.15
12963;BME280;6546;49.882;8.666;2023-03-16T12:46:48;100206.81;;;10.08;45.07
12963;BME280;6546;49.882;8.666;2023-03-16T12:49:22;100198.34;;;10.16;44.60
12963;BME280;6546;49.882;8.666;2023-03-16T12:51:58;100188.97;;;10.23;44.38
12963;BME280;6546;49.882;8.666;2023-03-16T12:54:25;100185.25;;;10.25;43.75
12963;BME280;6546;49.882;8.666;2023-03-16T12:56:59;100181.41;;;10.29;43.44
12963;BME280;6546;49.882;8.666;2023-03-16T12:59:36;100185.00;;;10.36;42.67
12963;BME280;6546;49.882;8.666;2023-03-16T13:02:10;100181.22;;;10.31;42.67
12963;BME280;6546;49.882;8.666;2023-03-16T13:04:42;100172.31;;;10.25;43.80
12963;BME280;6546;49.882;8.666;2023-03-16T13:07:16;100174.94;;;10.33;44.30
12963;BME280;6546;49.882;8.666;2023-03-16T13:09:46;100178.84;;;10.45;42.93
12963;BME280;6546;49.882;8.666;2023-03-16T13:12:26;100166.91;;;10.61;42.88
12963;BME280;6546;49.882;8.666;2023-03-16T13:14:53;100167.41;;;10.64;42.64
12963;BME280;6546;49.882;8.666;2023-03-16T13:17:27;100154.81;;;10.69;40.17
12963;BME280;6546;49.882;8.666;2023-03-16T13:20:02;100144.75;;;10.66;39.30
12963;BME280;6546;49.882;8.666;2023-03-16T13:22:41;100150.06;;;10.57;39.68
12963;BME280;6546;49.882;8.666;2023-03-16T13:25:15;100140.88;;;10.62;40.91
12963;BME280;6546;49.882;8.666;2023-03-16T13:27:47;100145.22;;;10.70;42.95